Time;durP1;ratioP1;P1;durP2;ratioP2;P2;SDS_P1;SDS_P2;PMS_P1;PMS_P2;Temp;Humidity;BMP_temperature;BMP_pressure;BME280_temperature;BME280_humidity;BME280_pressure;Samples;Min_cycle;Max_cycle;Signal;HPM_P1;HPM_P2
2022/11/27 00:00:07;;;;;;;86.15;37.38;;;2.20;99.90;;;0.73;100.00;98559.50;5070631;28;20422;-71
2022/11/27 00:02:33;;;;;;;98.00;40.13;;;2.10;99.90;;;0.76;100.00;98551.34;5070432;28;20487;-70
2022/11/27 00:04:59;;;;;;;99.50;41.00;;;2.20;99.90;;;0.78;100.00;98550.22;5069578;28;20495;-70
2022/11/27 00:07:25;;;;;;;105.20;42.30;;;2.20;99.90;;;0.78;100.00;98544.19;5070222;28;20410;-71
2022/11/27 00:09:52;;;;;;;128.70;44.63;;;2.20;99.90;;;0.85;100.00;98541.75;5070436;28;21109;-71
2022/11/27 00:12:18;;;;;;;119.10;44.90;;;2.20;99.90;;;0.88;100.00;98539.66;5070126;28;20419;-70
2022/11/27 00:14:43;;;;;;;107.97;40.30;;;2.20;99.90;;;0.90;100.00;98544.72;5068190;28;20955;-71
2022/11/27 00:17:09;;;;;;;109.57;41.92;;;2.20;99.90;;;0.95;100.00;98543.25;5070111;28;20414;-71
2022/11/27 00:19:35;;;;;;;128.32;44.20;;;2.30;99.90;;;0.96;100.00;98536.25;5070088;28;20414;-71
2022/11/27 00:22:01;;;;;;;110.15;42.90;;;2.30;99.90;;;0.97;100.00;98528.28;5069760;28;20473;-71
2022/11/27 00:24:27;;;;;;;121.07;42.35;;;2.30;99.90;;;0.94;100.00;98527.75;5069100;28;20475;-71
2022/11/27 00:26:54;;;;;;;129.00;44.22;;;2.30;99.90;;;0.92;100.00;98519.28;5070091;28;20765;-71
2022/11/27 00:29:20;;;;;;;142.27;43.17;;;2.30;99.90;;;0.87;100.00;98511.16;5069848;28;20411;-71
2022/11/27 00:31:46;;;;;;;84.55;33.92;;;2.20;99.90;;;0.81;100.00;98506.59;5069702;28;20415;-71
2022/11/27 00:34:12;;;;;;;82.73;33.80;;;2.20;99.90;;;0.82;100.00;98516.84;5069090;28;20428;-70
2022/11/27 00:36:38;;;;;;;118.35;39.33;;;2.20;99.90;;;0.85;100.00;98513.09;5069826;28;20442;-71
2022/11/27 00:39:05;;;;;;;93.43;35.65;;;2.20;99.90;;;0.84;100.00;98508.84;5069781;28;20396;-70
2022/11/27 00:41:33;;;;;;;101.60;37.13;;;2.20;99.90;;;0.82;100.00;98501.22;5069803;28;20392;-70
2022/11/27 00:44:00;;;;;;;90.70;35.15;;;2.20;99.90;;;0.83;100.00;98489.00;5068924;28;20408;-70
2022/11/27 00:46:28;;;;;;;90.13;33.20;;;2.20;99.90;;;0.78;100.00;98497.28;5069433;28;20408;-71
2022/11/27 00:48:55;;;;;;;88.43;32.92;;;2.10;99.90;;;0.77;100.00;98493.03;5069700;28;20396;-70
2022/11/27 00:51:22;;;;;;;112.03;36.88;;;2.10;99.90;;;0.75;100.00;98492.41;5069587;28;20796;-70
2022/11/27 00:53:49;;;;;;;87.20;33.65;;;2.10;99.90;;;0.75;100.00;98493.19;5066142;28;20415;-71
2022/11/27 00:56:17;;;;;;;112.93;37.58;;;2.10;99.90;;;0.75;100.00;98487.22;5069619;28;20414;-70
2022/11/27 00:58:43;;;;;;;121.68;38.88;;;2.10;99.90;;;0.77;100.00;98483.44;5069464;28;20908;-69
2022/11/27 01:01:17;;;;;;;118.80;37.38;;;2.10;99.90;;;0.72;100.00;98475.31;5069450;28;20769;-71
2022/11/27 01:03:44;;;;;;;116.40;37.05;;;2.10;99.90;;;0.66;100.00;98469.94;5068641;28;21305;-71
2022/11/27 01:06:10;;;;;;;103.88;36.03;;;2.00;99.90;;;0.62;100.00;98466.00;5069343;28;20511;-69
2022/11/27 01:08:36;;;;;;;118.57;36.70;;;2.00;99.90;;;0.61;100.00;98467.78;5069457;28;20414;-69
2022/11/27 01:11:03;;;;;;;98.18;32.13;;;2.00;99.90;;;0.56;100.00;98458.84;5069237;28;20407;-69
2022/11/27 01:13:32;;;;;;;73.30;29.75;;;2.00;99.90;;;0.55;100.00;98459.81;5065934;28;20411;-69
2022/11/27 01:15:59;;;;;;;92.10;31.83;;;1.90;99.90;;;0.53;100.00;98454.75;5069329;28;20403;-70
2022/11/27 01:18:26;;;;;;;73.67;29.23;;;1.90;99.90;;;0.51;100.00;98454.13;5069309;28;20873;-70
2022/11/27 01:20:52;;;;;;;98.32;31.77;;;1.90;99.90;;;0.50;100.00;98451.66;5069343;28;20964;-70
2022/11/27 01:23:18;;;;;;;101.50;33.63;;;1.90;99.90;;;0.52;100.00;98452.34;5068609;28;20781;-70
2022/11/27 01:25:44;;;;;;;94.15;31.83;;;1.90;99.90;;;0.52;100.00;98453.16;5069128;28;20400;-70
2022/11/27 01:28:10;;;;;;;94.20;30.63;;;1.90;99.90;;;0.50;100.00;98451.66;5069400;28;20823;-70
2022/11/27 01:30:36;;;;;;;81.30;28.42;;;1.90;99.90;;;0.46;100.00;98451.16;5069072;28;20407;-70
2022/11/27 01:33:03;;;;;;;82.88;29.90;;;1.90;99.90;;;0.44;100.00;98447.94;5068322;28;20423;-70
2022/11/27 01:35:30;;;;;;;93.78;31.02;;;1.90;99.90;;;0.42;100.00;98442.06;5070769;28;20403;-70
2022/11/27 01:37:56;;;;;;;94.38;32.35;;;1.80;99.90;;;0.41;100.00;98445.63;5073349;28;20886;-70
2022/11/27 01:40:23;;;;;;;87.22;32.35;;;1.80;99.90;;;0.42;100.00;98443.84;5073117;28;20486;-70
2022/11/27 01:42:49;;;;;;;94.15;31.83;;;1.80;99.90;;;0.41;100.00;98442.22;5069834;28;20441;-71
2022/11/27 01:45:18;;;;;;;87.45;31.40;;;1.80;99.90;;;0.38;100.00;98436.34;5071888;28;20501;-71
2022/11/27 01:47:50;;;;;;;92.55;31.27;;;1.80;99.90;;;0.38;100.00;98430.31;5071432;28;20408;-70
2022/11/27 01:50:21;;;;;;;99.60;33.22;;;1.80;99.90;;;0.39;100.00;98429.34;5073062;28;20418;-71
2022/11/27 01:52:53;;;;;;;114.32;34.95;;;1.80;99.90;;;0.41;100.00;98430.00;5072063;28;20549;-71
2022/11/27 01:55:27;;;;;;;102.25;33.45;;;1.80;99.90;;;0.43;100.00;98419.44;5072883;28;20401;-70
2022/11/27 01:57:59;;;;;;;111.63;34.67;;;1.80;99.90;;;0.43;100.00;98416.81;5070902;28;20392;-70
2022/11/27 02:00:25;;;;;;;111.00;36.53;;;1.80;99.90;;;0.49;100.00;98424.00;5072492;28;20399;-71
2022/11/27 02:02:51;;;;;;;106.10;35.22;;;1.90;99.90;;;0.49;100.00;98422.19;5072060;28;20391;-71
2022/11/27 02:05:22;;;;;;;101.90;32.08;;;1.90;99.90;;;0.47;100.00;98423.31;5072745;28;20403;-71
2022/11/27 02:07:51;;;;;;;112.20;34.33;;;1.90;99.90;;;0.45;100.00;98425.31;5072677;28;20403;-71
2022/11/27 02:10:18;;;;;;;72.53;28.33;;;1.80;99.90;;;0.43;100.00;98416.81;5072618;28;20407;-71
2022/11/27 02:12:53;;;;;;;95.68;31.52;;;1.80;99.90;;;0.42;100.00;98420.41;5071943;28;20429;-70
2022/11/27 02:15:28;;;;;;;122.93;34.97;;;1.80;99.90;;;0.38;100.00;98422.50;5068094;28;20502;-71
2022/11/27 02:18:02;;;;;;;106.72;33.30;;;1.80;99.90;;;0.36;100.00;98414.06;5070027;28;20486;-70
2022/11/27 02:20:42;;;;;;;112.85;33.17;;;1.80;99.90;;;0.33;100.00;98411.75;5069977;28;20502;-70
2022/11/27 02:23:35;;;;;;;80.45;29.25;;;1.70;99.90;;;0.30;100.00;98410.28;5069095;28;20445;-71
2022/11/27 02:26:38;;;;;;;80.72;29.08;;;1.70;99.90;;;0.28;100.00;98417.47;5072213;28;20411;-72
2022/11/27 02:29:09;;;;;;;67.88;26.90;;;1.70;99.90;;;0.27;100.00;98409.81;5072062;28;20403;-72
2022/11/27 02:31:40;;;;;;;90.88;30.33;;;1.70;99.90;;;0.22;100.00;98410.31;5072220;28;20477;-72
2022/11/27 02:34:21;;;;;;;91.03;29.92;;;1.70;99.90;;;0.19;100.00;98405.41;5068852;28;20404;-71
2022/11/27 02:36:53;;;;;;;95.45;29.08;;;1.60;99.90;;;0.16;100.00;98405.72;5069193;28;20400;-72
2022/11/27 02:39:25;;;;;;;83.30;28.80;;;1.60;99.90;;;0.13;100.00;98408.66;5072206;28;21339;-72
2022/11/27 02:41:58;;;;;;;80.82;28.65;;;1.60;99.90;;;0.11;100.00;98413.19;5070110;28;20430;-72
2022/11/27 02:44:29;;;;;;;84.63;28.65;;;1.50;99.90;;;0.10;100.00;98400.34;5070975;28;20457;-72
2022/11/27 02:46:55;;;;;;;92.93;30.77;;;1.50;99.90;;;0.07;100.00;98406.69;5071929;28;20407;-72
2022/11/27 02:49:22;;;;;;;87.93;29.73;;;1.50;99.90;;;0.05;100.00;98397.41;5071890;28;20473;-72
2022/11/27 02:51:54;;;;;;;80.30;29.10;;;1.50;99.90;;;0.02;100.00;98395.91;5071840;28;20444;-72
2022/11/27 02:54:25;;;;;;;113.20;33.90;;;1.50;99.90;;;0.00;100.00;98406.47;5071168;28;20773;-72
2022/11/27 02:56:54;;;;;;;110.13;32.63;;;1.50;99.90;;;-0.03;100.00;98403.41;5069916;28;20414;-72
2022/11/27 02:59:23;;;;;;;114.28;33.30;;;1.40;99.90;;;-0.06;100.00;98388.91;5071787;28;20461;-72
2022/11/27 03:01:54;;;;;;;88.40;27.33;;;1.40;99.90;;;-0.10;100.00;98387.63;5068799;28;20400;-72
2022/11/27 03:04:25;;;;;;;85.87;28.70;;;1.30;99.90;;;-0.12;100.00;98392.16;5070862;28;20410;-72
2022/11/27 03:06:55;;;;;;;91.63;30.27;;;1.30;99.90;;;-0.13;100.00;98403.53;5069638;28;20495;-72
2022/11/27 03:09:28;;;;;;;94.90;30.60;;;1.30;99.90;;;-0.15;100.00;98389.06;5071496;28;20404;-72
2022/11/27 03:11:55;;;;;;;78.53;27.50;;;1.30;99.90;;;-0.17;100.00;98389.22;5071537;28;20415;-72
2022/11/27 03:14:23;;;;;;;107.18;31.02;;;1.30;99.90;;;-0.19;100.00;98391.16;5070705;28;20877;-72
2022/11/27 03:17:01;;;;;;;79.53;26.97;;;1.30;99.90;;;-0.19;100.00;98388.56;5069194;28;20395;-71
2022/11/27 03:19:37;;;;;;;94.57;29.73;;;1.30;99.90;;;-0.22;100.00;98388.03;5068932;28;20395;-72
2022/11/27 03:22:03;;;;;;;92.65;28.60;;;1.20;99.90;;;-0.26;100.00;98387.56;5071277;28;20399;-72
2022/11/27 03:24:34;;;;;;;77.25;25.98;;;1.20;99.90;;;-0.28;100.00;98381.69;5070584;28;20551;-72
2022/11/27 03:27:01;;;;;;;83.57;27.73;;;1.20;99.90;;;-0.30;100.00;98373.22;5071296;28;20462;-72
2022/11/27 03:29:32;;;;;;;83.15;27.45;;;1.20;99.90;;;-0.29;100.00;98369.66;5067190;28;20831;-71
2022/11/27 03:32:00;;;;;;;96.32;28.85;;;1.20;99.90;;;-0.31;100.00;98363.81;5070974;28;20514;-72
2022/11/27 03:34:27;;;;;;;83.35;26.70;;;1.10;99.90;;;-0.31;100.00;98363.00;5064529;28;20400;-71
2022/11/27 03:36:53;;;;;;;93.95;27.48;;;1.10;99.90;;;-0.33;100.00;98363.16;5071723;28;20425;-71
2022/11/27 03:39:20;;;;;;;64.47;23.75;;;1.10;99.90;;;-0.33;100.00;98364.94;5074073;28;20411;-73
2022/11/27 03:41:55;;;;;;;92.13;26.95;;;1.10;99.90;;;-0.35;100.00;98366.88;5070505;28;20408;-71
2022/11/27 03:44:31;;;;;;;69.50;24.50;;;1.10;99.90;;;-0.38;100.00;98372.41;5076476;28;20400;-71
2022/11/27 03:47:09;;;;;;;70.10;24.60;;;1.10;99.90;;;-0.38;100.00;98377.63;5081136;28;20404;-71
2022/11/27 03:49:50;;;;;;;70.93;24.45;;;1.10;99.90;;;-0.38;100.00;98380.22;5078044;28;20392;-71
2022/11/27 03:52:27;;;;;;;81.40;27.75;;;1.10;99.90;;;-0.38;100.00;98378.44;5069343;28;20412;-72
2022/11/27 03:55:04;;;;;;;109.40;31.23;;;1.10;99.90;;;-0.31;100.00;98374.22;5068397;28;20399;-71
2022/11/27 03:57:37;;;;;;;80.15;26.80;;;1.10;99.90;;;-0.40;100.00;98378.59;5067891;28;20404;-72
2022/11/27 04:00:07;;;;;;;81.05;27.48;;;1.10;99.90;;;-0.40;100.00;98369.97;5071142;28;20479;-71
2022/11/27 04:02:42;;;;;;;91.68;28.10;;;1.10;99.90;;;-0.35;100.00;98372.09;5070614;28;20400;-71
2022/11/27 04:05:09;;;;;;;67.47;23.55;;;1.10;99.90;;;-0.43;100.00;98363.28;5068298;28;20781;-71
2022/11/27 04:07:35;;;;;;;85.23;26.37;;;1.00;99.90;;;-0.42;100.00;98369.28;5070421;28;20407;-71
2022/11/27 04:10:03;;;;;;;81.25;24.23;;;1.00;99.90;;;-0.43;100.00;98362.47;5070473;28;20479;-71
2022/11/27 04:12:28;;;;;;;60.15;22.02;;;1.00;99.90;;;-0.44;100.00;98356.44;5067766;28;20426;-72
2022/11/27 04:14:54;;;;;;;73.30;23.05;;;1.00;99.90;;;-0.46;100.00;98358.41;5069734;28;20912;-72
2022/11/27 04:17:20;;;;;;;69.30;22.38;;;1.00;99.90;;;-0.48;100.00;98355.16;5070277;28;20861;-72
2022/11/27 04:19:48;;;;;;;75.45;23.92;;;1.00;99.90;;;-0.49;100.00;98355.28;5070326;28;21043;-71
2022/11/27 04:22:14;;;;;;;75.70;23.25;;;1.00;99.90;;;-0.50;100.00;98351.88;5070360;28;20441;-72
2022/11/27 04:24:39;;;;;;;72.20;23.17;;;1.00;99.90;;;-0.53;100.00;98361.78;5069422;28;20406;-71
2022/11/27 04:27:05;;;;;;;70.32;22.60;;;0.90;99.90;;;-0.55;100.00;98348.13;5070080;28;21103;-72
2022/11/27 04:29:31;;;;;;;82.03;23.90;;;0.90;99.90;;;-0.57;100.00;98347.47;5070237;28;20481;-70
2022/11/27 04:31:57;;;;;;;40.60;13.95;;;0.90;99.90;;;-0.60;100.00;98340.78;5069959;28;20766;-70
2022/11/27 04:34:23;;;;;;;67.53;22.42;;;0.90;99.90;;;-0.61;100.00;98339.19;5069072;28;20395;-70
2022/11/27 04:36:50;;;;;;;120.82;35.90;;;0.90;99.90;;;-0.59;100.00;98341.59;5070002;28;20400;-70
2022/11/27 04:39:16;;;;;;;80.57;23.17;;;0.90;99.90;;;-0.62;100.00;98339.31;5070048;28;20418;-72
2022/11/27 04:41:42;;;;;;;58.55;21.92;;;0.80;99.90;;;-0.65;100.00;98335.25;5069709;28;20396;-72
2022/11/27 04:44:10;;;;;;;78.38;24.65;;;0.80;99.90;;;-0.67;100.00;98339.78;5069179;28;20423;-70
2022/11/27 04:46:36;;;;;;;26.23;11.32;;;0.80;99.90;;;-0.69;100.00;98320.94;5085737;22;20570;-76
2022/11/27 04:49:02;;;;;;;72.68;24.85;;;0.80;99.90;;;-0.68;100.00;98325.19;5090078;28;21252;-75
2022/11/27 04:51:28;;;;;;;85.03;31.52;;;0.80;99.90;;;-0.68;100.00;98332.16;5087070;28;20402;-76
2022/11/27 04:53:55;;;;;;;38.00;14.13;;;0.80;99.90;;;-0.68;100.00;98334.75;5089072;28;20463;-76
2022/11/27 04:56:21;;;;;;;28.65;11.85;;;0.80;99.90;;;-0.70;100.00;98332.31;5086483;28;20400;-77
2022/11/27 04:58:47;;;;;;;84.47;29.48;;;0.70;99.90;;;-0.72;100.00;98330.81;5070083;28;20524;-76
2022/11/27 05:01:13;;;;;;;80.45;23.95;;;0.70;99.90;;;-0.73;100.00;98318.78;5069491;28;20885;-77
2022/11/27 05:03:39;;;;;;;56.70;20.23;;;0.70;99.90;;;-0.75;100.00;98320.75;5068570;28;20491;-76
2022/11/27 05:06:05;;;;;;;75.40;22.40;;;0.70;99.90;;;-0.77;100.00;98327.91;5069287;28;20403;-77
2022/11/27 05:08:32;;;;;;;78.95;22.60;;;0.70;99.90;;;-0.79;100.00;98323.66;5068605;28;20754;-77
2022/11/27 05:11:01;;;;;;;77.40;23.73;;;0.70;99.90;;;-0.75;100.00;98318.94;5069201;28;20960;-76
2022/11/27 05:13:27;;;;;;;68.03;21.17;;;0.70;99.90;;;-0.78;100.00;98316.69;5065847;28;20411;-76
2022/11/27 05:15:53;;;;;;;59.38;19.90;;;0.70;99.90;;;-0.80;100.00;98318.63;5069380;28;20494;-76
2022/11/27 05:18:19;;;;;;;67.22;21.85;;;0.70;99.90;;;-0.82;100.00;98318.75;5069201;28;20490;-77
2022/11/27 05:20:45;;;;;;;91.40;24.60;;;0.70;99.90;;;-0.79;100.00;98315.88;5067810;28;20964;-76
2022/11/27 05:23:11;;;;;;;72.67;23.97;;;0.70;99.90;;;-0.78;100.00;98308.88;5068596;28;20427;-76
2022/11/27 05:25:37;;;;;;;87.57;25.27;;;0.70;99.90;;;-0.73;100.00;98311.81;5051323;28;20414;-77
2022/11/27 05:28:04;;;;;;;73.55;23.20;;;0.70;99.90;;;-0.79;100.00;98310.66;5069256;28;20404;-76
2022/11/27 05:30:30;;;;;;;73.75;22.50;;;0.60;99.90;;;-0.84;100.00;98318.13;5069294;28;20422;-76
2022/11/27 05:32:56;;;;;;;56.58;20.45;;;0.60;99.90;;;-0.87;100.00;98310.63;5068444;28;20480;-77
2022/11/27 05:35:22;;;;;;;76.93;22.38;;;0.60;99.90;;;-0.87;100.00;98312.41;5069189;28;20431;-77
2022/11/27 05:37:48;;;;;;;71.25;22.55;;;0.60;99.90;;;-0.88;100.00;98311.59;5066507;28;20443;-77
2022/11/27 05:40:14;;;;;;;79.03;24.10;;;0.60;99.90;;;-0.82;100.00;98313.56;5069015;28;20487;-77
2022/11/27 05:42:40;;;;;;;66.40;21.88;;;0.60;99.90;;;-0.89;100.00;98307.38;5068484;28;20482;-76
2022/11/27 05:45:08;;;;;;;68.40;22.03;;;0.60;99.90;;;-0.90;100.00;98302.31;5068818;28;20396;-76
2022/11/27 05:47:34;;;;;;;60.60;20.17;;;0.60;99.90;;;-0.92;100.00;98305.09;5068986;28;20399;-76
2022/11/27 05:50:00;;;;;;;56.80;19.48;;;0.50;99.90;;;-0.91;100.00;98311.09;5069098;28;20439;-77
2022/11/27 05:52:26;;;;;;;58.80;20.27;;;0.50;99.90;;;-0.90;100.00;98307.50;5068913;28;20433;-76
2022/11/27 05:54:53;;;;;;;62.42;20.60;;;0.60;99.90;;;-0.90;100.00;98312.72;5050328;28;20416;-77
2022/11/27 05:57:19;;;;;;;76.75;23.38;;;0.60;99.90;;;-0.91;100.00;98317.13;5069079;28;20408;-76
2022/11/27 05:59:45;;;;;;;49.03;19.07;;;0.60;99.90;;;-0.92;100.00;98314.69;5051019;28;20469;-76
2022/11/27 06:02:12;;;;;;;53.13;20.15;;;0.50;99.90;;;-0.92;100.00;98318.09;5068900;28;20439;-76
2022/11/27 06:04:38;;;;;;;57.63;20.65;;;0.60;99.90;;;-0.94;100.00;98325.22;5067967;28;20408;-76
2022/11/27 06:07:04;;;;;;;66.35;20.80;;;0.50;99.90;;;-0.92;100.00;98330.25;5069032;28;20490;-76
2022/11/27 06:09:30;;;;;;;49.60;17.85;;;0.50;99.90;;;-0.95;100.00;98313.19;5068815;28;20642;-77
2022/11/27 06:11:56;;;;;;;59.25;19.95;;;0.50;99.90;;;-0.94;100.00;98308.81;5068521;28;20473;-76
2022/11/27 06:14:22;;;;;;;48.42;18.02;;;0.50;99.90;;;-0.94;100.00;98314.00;5049958;28;20431;-76
2022/11/27 06:16:48;;;;;;;66.40;21.17;;;0.50;99.90;;;-0.93;100.00;98316.47;5066180;28;20404;-76
2022/11/27 06:19:15;;;;;;;63.28;20.13;;;0.50;99.90;;;-0.99;100.00;98317.09;5068996;28;20418;-77
2022/11/27 06:21:41;;;;;;;45.37;18.13;;;0.50;99.90;;;-1.00;100.00;98319.84;5072500;28;20431;-76
2022/11/27 06:24:07;;;;;;;61.30;19.45;;;0.50;99.90;;;-0.99;100.00;98324.06;5053619;28;20427;-77
2022/11/27 06:26:33;;;;;;;69.23;22.60;;;0.50;99.90;;;-1.00;100.00;98319.84;5072329;28;20396;-77
2022/11/27 06:29:00;;;;;;;81.57;23.40;;;0.50;99.90;;;-1.00;100.00;98323.25;5054589;28;20407;-77
2022/11/27 06:31:29;;;;;;;73.60;22.30;;;0.50;99.90;;;-1.02;100.00;98316.56;5072220;28;20431;-76
2022/11/27 06:33:56;;;;;;;76.97;22.85;;;0.50;99.90;;;-1.02;100.00;98319.97;5071552;28;20408;-77
2022/11/27 06:36:27;;;;;;;51.90;18.85;;;0.50;99.90;;;-1.05;100.00;98322.88;5054312;28;20785;-76
2022/11/27 06:38:53;;;;;;;70.30;21.42;;;0.40;99.90;;;-1.04;100.00;98311.50;5070293;28;20408;-76
2022/11/27 06:41:23;;;;;;;68.45;20.08;;;0.40;99.90;;;-1.07;100.00;98304.06;5072097;28;20415;-76
2022/11/27 06:43:49;;;;;;;59.17;19.08;;;0.40;99.90;;;-1.07;100.00;98305.84;5068839;28;20401;-76
2022/11/27 06:46:17;;;;;;;50.97;17.75;;;0.40;99.90;;;-1.08;100.00;98301.59;5071872;28;20431;-76
2022/11/27 06:48:45;;;;;;;53.05;18.13;;;0.40;99.90;;;-1.07;100.00;98309.25;5072004;28;20404;-76
2022/11/27 06:51:15;;;;;;;52.45;17.92;;;0.40;99.90;;;-1.06;100.00;98303.09;5071921;28;20970;-76
2022/11/27 06:53:43;;;;;;;59.70;19.60;;;0.40;99.90;;;-1.07;100.00;98316.22;5070583;28;20478;-76
2022/11/27 06:56:11;;;;;;;71.32;21.60;;;0.40;99.90;;;-1.01;100.00;98315.59;5051596;28;20853;-73
2022/11/27 06:58:38;;;;;;;76.07;22.10;;;0.40;99.90;;;-0.99;100.00;98303.28;5071328;28;20438;-73
2022/11/27 07:01:08;;;;;;;59.53;19.20;;;0.40;99.90;;;-1.04;100.00;98293.31;5070645;28;20404;-72
2022/11/27 07:03:34;;;;;;;60.23;19.30;;;0.40;99.90;;;-1.00;100.00;98299.84;5070585;28;20396;-73
2022/11/27 07:06:02;;;;;;;71.53;20.98;;;0.50;99.90;;;-0.96;100.00;98292.56;5071425;28;20762;-75
2022/11/27 07:08:28;;;;;;;43.85;16.98;;;0.50;99.90;;;-0.94;100.00;98280.22;5071150;28;20457;-73
2022/11/27 07:11:00;;;;;;;40.72;16.35;;;0.50;99.90;;;-0.89;100.00;98285.75;5071095;28;20404;-72
2022/11/27 07:13:27;;;;;;;64.25;20.10;;;0.60;99.90;;;-0.81;100.00;98291.81;5069948;28;20781;-72
2022/11/27 07:15:53;;;;;;;48.47;17.92;;;0.60;99.90;;;-0.77;100.00;98297.53;5068639;28;20491;-72
2022/11/27 07:18:19;;;;;;;56.92;18.58;;;0.60;99.90;;;-0.74;100.00;98289.38;5067806;28;20897;-76
2022/11/27 07:20:50;;;;;;;45.90;16.90;;;0.70;99.90;;;-0.68;100.00;98293.16;5065932;28;20492;-74
2022/11/27 07:23:16;;;;;;;45.47;17.27;;;0.70;99.90;;;-0.61;100.00;98276.78;5067794;28;20411;-78
2022/11/27 07:25:42;;;;;;;70.47;21.52;;;0.80;99.90;;;-0.52;100.00;98272.38;5071174;28;20404;-77
2022/11/27 07:28:10;;;;;;;50.60;19.45;;;0.90;99.90;;;-0.46;100.00;98272.59;5071457;28;20905;-76
2022/11/27 07:30:36;;;;;;;54.65;19.98;;;0.90;99.90;;;-0.42;100.00;98255.69;5067964;28;20404;-74
2022/11/27 07:33:02;;;;;;;43.55;17.77;;;1.00;99.90;;;-0.34;100.00;98256.66;5065669;28;20496;-76
2022/11/27 07:35:27;;;;;;;46.83;18.60;;;1.00;99.90;;;-0.30;100.00;98250.97;5066185;28;20395;-76
2022/11/27 07:37:53;;;;;;;59.63;20.67;;;1.10;99.90;;;-0.23;100.00;98249.38;5066860;28;20469;-76
2022/11/27 07:40:19;;;;;;;61.88;22.10;;;1.10;99.90;;;-0.18;100.00;98238.47;5068513;28;20400;-74
2022/11/27 07:42:45;;;;;;;46.23;18.87;;;1.20;99.90;;;-0.16;100.00;98241.72;5069915;28;20773;-74
2022/11/27 07:45:12;;;;;;;51.92;20.55;;;1.20;99.90;;;-0.11;100.00;98257.66;5070811;28;20407;-74
2022/11/27 07:47:38;;;;;;;51.05;20.55;;;1.20;99.90;;;-0.07;100.00;98243.34;5070755;28;20576;-73
2022/11/27 07:50:07;;;;;;;61.75;21.63;;;1.30;99.90;;;0.00;100.00;98236.53;5070701;28;20414;-73
2022/11/27 07:52:33;;;;;;;53.60;21.38;;;1.40;99.90;;;0.05;100.00;98230.81;5070477;28;20502;-74
2022/11/27 07:54:59;;;;;;;59.00;20.67;;;1.40;99.90;;;0.10;100.00;98221.53;5069104;28;20407;-73
2022/11/27 07:57:26;;;;;;;50.85;20.35;;;1.50;99.90;;;0.18;100.00;98220.72;5067877;28;20423;-74
2022/11/27 07:59:52;;;;;;;59.58;22.30;;;1.50;99.90;;;0.25;100.00;98224.28;5067051;28;20865;-74
2022/11/27 08:02:20;;;;;;;57.28;21.95;;;1.60;99.90;;;0.30;100.00;98225.41;5069078;28;20777;-74
2022/11/27 08:04:46;;;;;;;69.13;24.35;;;1.60;99.90;;;0.35;100.00;98227.53;5060406;28;20412;-74
2022/11/27 08:07:12;;;;;;;49.50;19.73;;;1.70;99.90;;;0.41;100.00;98233.88;5061688;28;20404;-73
2022/11/27 08:09:38;;;;;;;59.05;21.80;;;1.70;99.90;;;0.50;100.00;98227.66;5063093;28;20445;-73
2022/11/27 08:12:06;;;;;;;49.78;20.95;;;1.80;99.90;;;0.61;100.00;98230.72;5068349;28;20789;-74
2022/11/27 08:14:32;;;;;;;60.72;21.52;;;1.90;99.90;;;0.69;100.00;98238.50;5064512;28;20423;-72
2022/11/27 08:16:58;;;;;;;59.35;20.88;;;2.00;99.90;;;0.86;100.00;98233.25;5064928;28;20406;-73
2022/11/27 08:19:25;;;;;;;57.53;20.92;;;2.10;99.90;;;0.89;100.00;98228.53;5060756;28;20449;-73
2022/11/27 08:21:51;;;;;;;53.53;21.27;;;2.20;99.90;;;1.02;100.00;98220.97;5067931;28;20473;-73
2022/11/27 08:24:17;;;;;;;43.30;19.30;;;2.30;99.90;;;1.19;100.00;98221.72;5066004;28;20443;-73
2022/11/27 08:26:43;;;;;;;54.70;19.92;;;2.40;99.90;;;1.30;100.00;98215.28;5066272;28;20410;-73
2022/11/27 08:29:10;;;;;;;50.20;19.90;;;2.60;99.90;;;1.44;100.00;98206.72;5064929;28;20411;-72
2022/11/27 08:31:36;;;;;;;43.08;17.63;;;2.60;99.90;;;1.59;100.00;98201.56;5062571;28;20404;-73
2022/11/27 08:34:02;;;;;;;48.63;18.63;;;2.80;99.90;;;1.65;100.00;98200.88;5062815;28;20919;-73
2022/11/27 08:36:29;;;;;;;40.63;15.85;;;2.90;99.90;;;1.74;100.00;98200.63;5062074;28;20426;-72
2022/11/27 08:38:55;;;;;;;52.35;19.10;;;3.00;99.90;;;1.83;100.00;98203.97;5067909;28;20408;-73
2022/11/27 08:41:21;;;;;;;42.65;17.27;;;3.00;99.90;;;1.93;100.00;98207.19;5065927;28;20898;-73
2022/11/27 08:43:47;;;;;;;36.05;14.90;;;3.10;99.90;;;2.10;100.00;98200.84;5066942;28;20403;-73
2022/11/27 08:46:14;;;;;;;49.22;17.10;;;3.20;99.90;;;2.11;100.00;98204.22;5068043;28;20888;-73
2022/11/27 08:48:40;;;;;;;40.00;17.10;;;3.30;99.90;;;2.23;100.00;98198.41;5068062;28;20407;-73
2022/11/27 08:51:09;;;;;;;46.37;18.10;;;3.40;99.90;;;2.32;100.00;98194.75;5066951;28;20395;-73
2022/11/27 08:53:36;;;;;;;44.80;18.70;;;3.50;99.90;;;2.42;100.00;98199.69;5066850;28;20420;-73
2022/11/27 08:56:07;;;;;;;46.58;17.77;;;3.60;99.90;;;2.53;100.00;98188.81;5067789;28;20403;-73
2022/11/27 08:58:33;;;;;;;41.33;17.13;;;3.70;99.90;;;2.66;100.00;98191.59;5067796;28;20435;-73
2022/11/27 09:01:06;;;;;;;45.22;16.52;;;3.80;99.90;;;2.79;100.00;98190.13;5064783;28;20432;-73
2022/11/27 09:03:32;;;;;;;22.23;11.57;;;3.90;99.90;;;2.89;100.00;98191.47;5066193;28;20920;-73
2022/11/27 09:05:58;;;;;;;27.05;10.75;;;4.00;99.90;;;3.04;100.00;98183.59;5067728;28;20395;-73
2022/11/27 09:08:24;;;;;;;24.83;9.98;;;4.20;99.90;;;2.98;100.00;98173.88;5067671;28;20412;-73
2022/11/27 09:10:51;;;;;;;20.35;9.32;;;4.10;99.90;;;2.98;100.00;98187.78;5067736;28;20769;-72
2022/11/27 09:13:17;;;;;;;21.40;9.43;;;4.20;99.90;;;3.03;100.00;98171.53;5062854;28;20416;-72
2022/11/27 09:15:43;;;;;;;16.23;8.65;;;4.20;99.90;;;3.19;100.00;98173.91;5067656;28;20465;-72
2022/11/27 09:18:08;;;;;;;17.83;8.30;;;4.30;99.90;;;3.26;100.00;98174.00;5067217;28;20446;-72
2022/11/27 09:20:34;;;;;;;22.20;8.70;;;4.30;99.90;;;3.32;100.00;98175.84;5067204;28;20417;-72
2022/11/27 09:23:01;;;;;;;15.07;7.70;;;4.40;99.90;;;3.26;100.00;98171.38;5062611;28;20423;-71
2022/11/27 09:25:27;;;;;;;12.95;7.22;;;4.40;99.90;;;3.39;100.00;98187.19;5061985;28;20906;-72
2022/11/27 09:27:54;;;;;;;15.03;7.50;;;4.50;99.90;;;3.45;100.00;98184.69;5064303;28;20486;-73
2022/11/27 09:30:20;;;;;;;13.07;6.72;;;4.50;99.90;;;3.48;100.00;98176.44;5062060;28;20892;-72
2022/11/27 09:32:46;;;;;;;15.52;7.25;;;4.60;99.90;;;3.58;100.00;98167.47;5060394;28;20419;-73
2022/11/27 09:35:13;;;;;;;12.80;6.40;;;4.60;99.90;;;3.53;100.00;98160.19;5065460;28;20404;-73
2022/11/27 09:37:40;;;;;;;14.27;6.60;;;4.60;99.90;;;3.70;100.00;98160.72;5062078;28;20403;-73
2022/11/27 09:40:09;;;;;;;17.52;6.80;;;4.80;99.90;;;3.77;100.00;98170.25;5048683;28;20441;-73
2022/11/27 09:42:41;;;;;;;13.52;6.50;;;4.80;99.90;;;3.91;100.00;98179.03;5063103;28;20502;-74
2022/11/27 09:45:15;;;;;;;15.82;6.65;;;4.90;99.90;;;4.05;100.00;98170.31;5044464;28;20412;-72
2022/11/27 09:47:44;;;;;;;12.18;6.60;;;5.20;99.90;;;3.86;100.00;98156.03;5065173;28;20541;-74
2022/11/27 09:50:15;;;;;;;13.73;6.60;;;5.00;99.90;;;3.86;100.00;98156.03;5058751;28;21123;-73
2022/11/27 09:52:46;;;;;;;12.93;6.35;;;5.00;99.90;;;4.01;100.00;98158.56;5061843;28;20575;-74
2022/11/27 09:55:19;;;;;;;14.85;6.30;;;5.10;99.90;;;4.05;100.00;98144.09;5063035;28;20984;-73
2022/11/27 09:57:58;;;;;;;11.57;6.60;;;5.20;99.90;;;4.20;100.00;98141.38;5065279;28;20474;-73
2022/11/27 10:00:25;;;;;;;9.82;5.72;;;5.30;99.90;;;4.38;100.00;98136.44;5065966;28;20404;-74
2022/11/27 10:02:51;;;;;;;10.55;5.50;;;5.50;99.90;;;4.52;100.00;98132.06;5068236;28;20399;-74
2022/11/27 10:05:21;;;;;;;17.17;7.78;;;5.60;99.90;;;4.72;100.00;98140.06;5066777;28;20852;-73
2022/11/27 10:08:15;;;;;;;12.20;6.63;;;5.80;99.90;;;5.74;100.00;98132.81;5065278;28;20434;-73
2022/11/27 10:10:52;;;;;;;9.90;4.97;;;6.50;99.90;;;5.84;100.00;98122.72;5063857;28;20407;-74
2022/11/27 10:13:39;;;;;;;12.38;5.35;;;6.90;99.90;;;6.09;100.00;98125.56;5063266;28;20412;-74